createdAt,value
2023-05-02T00:00:40.200Z,12.78
2023-05-02T00:02:12.018Z,12.73
2023-05-02T00:03:43.927Z,12.70
2023-05-02T00:05:15.756Z,12.63
2023-05-02T00:06:47.330Z,12.58
2023-05-02T00:08:19.039Z,12.51
2023-05-02T00:09:50.686Z,12.43
2023-05-02T00:11:22.997Z,12.38
2023-05-02T00:12:54.554Z,12.34
2023-05-02T00:14:26.151Z,12.30
2023-05-02T00:15:57.676Z,12.28
2023-05-02T00:17:29.684Z,12.28
2023-05-02T00:19:01.317Z,12.26
2023-05-02T00:20:33.055Z,12.23
2023-05-02T00:22:04.590Z,12.20
2023-05-02T00:23:36.176Z,12.19
2023-05-02T00:25:08.376Z,12.12
2023-05-02T00:26:40.541Z,12.08
2023-05-02T00:28:14.017Z,12.03
2023-05-02T00:29:45.867Z,12.01
2023-05-02T00:31:17.592Z,12.03
2023-05-02T00:32:54.404Z,12.02
2023-05-02T00:34:32.193Z,12.06
2023-05-02T00:36:03.752Z,12.11
2023-05-02T00:37:35.948Z,12.14
2023-05-02T00:39:07.662Z,12.18
2023-05-02T00:40:48.947Z,12.19
2023-05-02T00:42:20.527Z,12.17
2023-05-02T00:43:52.030Z,12.17
2023-05-02T00:45:23.495Z,12.17
2023-05-02T00:46:55.458Z,12.15
2023-05-02T00:48:27.065Z,12.12
2023-05-02T00:49:59.375Z,12.12
2023-05-02T00:51:33.664Z,12.10
2023-05-02T00:53:05.693Z,12.08
2023-05-02T00:54:40.492Z,12.07
2023-05-02T00:56:12.061Z,12.10
2023-05-02T00:57:43.765Z,12.11
2023-05-02T00:59:15.382Z,12.11
2023-05-02T01:00:52.477Z,12.12
2023-05-02T01:02:43.942Z,12.16
2023-05-02T01:04:21.883Z,12.20
2023-05-02T01:06:04.214Z,12.20
2023-05-02T01:07:44.518Z,12.17
2023-05-02T01:09:19.022Z,12.14
2023-05-02T01:10:50.737Z,12.13
2023-05-02T01:12:29.125Z,12.07
2023-05-02T01:14:00.724Z,12.04
2023-05-02T01:15:32.321Z,12.07
2023-05-02T01:17:05.755Z,12.07
2023-05-02T01:18:39.055Z,12.10
2023-05-02T01:20:12.658Z,12.15
2023-05-02T01:21:44.364Z,12.19
2023-05-02T01:23:22.008Z,12.20
2023-05-02T01:25:11.924Z,12.18
2023-05-02T01:26:51.021Z,12.15
2023-05-02T01:28:30.878Z,12.10
2023-05-02T01:30:02.820Z,12.03
2023-05-02T01:31:43.682Z,11.98
2023-05-02T01:33:15.622Z,11.97
2023-05-02T01:34:47.839Z,11.96
2023-05-02T01:36:19.436Z,11.93
2023-05-02T01:37:50.986Z,11.92
2023-05-02T01:39:23.608Z,11.96
2023-05-02T01:40:55.106Z,11.99
2023-05-02T01:42:26.961Z,12.02
2023-05-02T01:43:58.980Z,12.01
2023-05-02T01:45:30.564Z,12.01
2023-05-02T01:47:02.984Z,11.97
2023-05-02T01:48:34.939Z,11.92
2023-05-02T01:50:09.352Z,11.87
2023-05-02T01:51:43.550Z,11.81
2023-05-02T01:53:15.537Z,11.73
2023-05-02T01:54:47.217Z,11.70
2023-05-02T01:56:18.914Z,11.67
2023-05-02T01:57:51.364Z,11.63
2023-05-02T01:59:22.995Z,11.59
2023-05-02T02:00:55.138Z,11.59
2023-05-02T02:02:28.092Z,11.57
2023-05-02T02:03:59.796Z,11.57
2023-05-02T02:05:31.321Z,11.57
2023-05-02T02:07:03.946Z,11.52
2023-05-02T02:08:35.816Z,11.49
2023-05-02T02:10:09.460Z,11.48
2023-05-02T02:11:51.866Z,11.48
2023-05-02T02:13:36.116Z,11.45
2023-05-02T02:15:31.250Z,11.45
2023-05-02T02:17:04.910Z,11.40
2023-05-02T02:18:37.524Z,11.34
2023-05-02T02:20:10.164Z,11.35
2023-05-02T02:21:44.573Z,11.36
2023-05-02T02:23:16.814Z,11.33
2023-05-02T02:24:48.952Z,11.34
2023-05-02T02:26:21.083Z,11.36
2023-05-02T02:27:55.057Z,11.33
2023-05-02T02:29:44.085Z,11.29
2023-05-02T02:36:14.136Z,11.23
2023-05-02T02:38:05.125Z,11.22
2023-05-02T02:39:43.529Z,11.22
2023-05-02T02:41:17.290Z,11.24
2023-05-02T02:42:58.784Z,11.27
2023-05-02T02:44:42.710Z,11.25
2023-05-02T02:46:14.607Z,11.22
2023-05-02T02:48:09.704Z,11.22
2023-05-02T02:49:57.757Z,11.22
2023-05-02T02:51:34.399Z,11.20
2023-05-02T02:53:06.712Z,11.19
2023-05-02T02:54:41.002Z,11.18
2023-05-02T02:56:28.968Z,11.21
2023-05-02T02:58:18.949Z,11.22
2023-05-02T03:00:11.186Z,11.18
2023-05-02T03:01:44.574Z,11.18
2023-05-02T03:03:17.075Z,11.16
2023-05-02T03:04:49.358Z,11.14
2023-05-02T03:06:21.027Z,11.15
2023-05-02T03:07:52.655Z,11.14
2023-05-02T03:09:24.274Z,11.13
2023-05-02T03:10:56.397Z,11.11
2023-05-02T03:12:27.970Z,11.06
2023-05-02T03:13:59.472Z,11.07
2023-05-02T03:15:37.526Z,11.08
2023-05-02T03:17:09.326Z,11.06
2023-05-02T03:18:43.338Z,11.07
2023-05-02T03:20:17.569Z,11.08
2023-05-02T03:21:49.424Z,11.07
2023-05-02T03:23:21.093Z,11.05
2023-05-02T03:24:53.058Z,11.03
2023-05-02T03:26:24.602Z,11.04
2023-05-02T03:27:57.809Z,11.05
2023-05-02T03:29:30.323Z,11.06
2023-05-02T03:31:02.350Z,11.06
2023-05-02T03:32:35.054Z,11.05
2023-05-02T03:34:07.064Z,11.06
2023-05-02T03:35:39.294Z,11.07
2023-05-02T03:37:10.888Z,11.09
2023-05-02T03:38:43.203Z,11.13
2023-05-02T03:40:15.190Z,11.14
2023-05-02T03:41:47.745Z,11.15
2023-05-02T03:43:19.342Z,11.15
2023-05-02T03:44:52.463Z,11.14
2023-05-02T03:46:24.191Z,11.16
2023-05-02T03:47:57.004Z,11.16
2023-05-02T03:49:29.116Z,11.20
2023-05-02T03:51:01.656Z,11.20
2023-05-02T03:52:34.406Z,11.22
2023-05-02T03:54:07.474Z,11.27
2023-05-02T03:55:41.098Z,11.24
2023-05-02T03:57:12.934Z,11.23
2023-05-02T03:58:47.054Z,11.24
2023-05-02T04:00:18.742Z,11.26
2023-05-02T04:01:53.283Z,11.32
2023-05-02T04:03:25.770Z,11.37
2023-05-02T04:05:05.376Z,11.41
2023-05-02T04:06:57.506Z,11.46
2023-05-02T04:12:49.452Z,11.54
2023-05-02T04:14:21.548Z,11.58
2023-05-02T04:15:52.982Z,11.63
2023-05-02T04:17:24.520Z,11.69
2023-05-02T04:18:56.116Z,11.77
2023-05-02T04:20:27.720Z,11.82
2023-05-02T04:21:59.758Z,11.87
2023-05-02T04:23:31.330Z,11.88
2023-05-02T04:25:03.777Z,11.93
2023-05-02T04:26:35.589Z,11.97
2023-05-02T04:28:07.793Z,12.03
2023-05-02T04:29:39.539Z,12.09
2023-05-02T04:31:11.213Z,12.12
2023-05-02T04:32:43.065Z,12.19
2023-05-02T04:34:14.552Z,12.22
2023-05-02T04:35:46.219Z,12.25
2023-05-02T04:37:18.016Z,12.28
2023-05-02T04:38:49.502Z,12.32
2023-05-02T04:40:21.188Z,12.32
2023-05-02T04:41:52.655Z,12.35
2023-05-02T04:43:24.833Z,12.37
2023-05-02T04:44:56.515Z,12.44
2023-05-02T04:46:28.392Z,12.48
2023-05-02T04:48:00.045Z,12.51
2023-05-02T04:49:32.656Z,12.51
2023-05-02T04:51:04.547Z,12.52
2023-05-02T04:52:36.515Z,12.58
2023-05-02T04:54:08.706Z,12.61
2023-05-02T04:55:40.956Z,12.63
2023-05-02T04:57:12.557Z,12.65
2023-05-02T04:58:44.073Z,12.65
2023-05-02T05:00:16.370Z,12.65
2023-05-02T05:01:47.960Z,12.73
2023-05-02T05:03:19.765Z,12.80
2023-05-02T05:04:51.459Z,12.88
2023-05-02T05:06:23.085Z,12.90
2023-05-02T05:07:54.793Z,12.88
2023-05-02T05:09:26.297Z,12.88
2023-05-02T05:10:58.151Z,12.88
2023-05-02T05:12:29.624Z,12.94
2023-05-02T05:14:01.187Z,12.98
2023-05-02T05:15:32.866Z,12.98
2023-05-02T05:17:04.554Z,13.00
2023-05-02T05:18:40.956Z,13.03
2023-05-02T05:20:13.041Z,12.99
2023-05-02T05:21:44.502Z,12.98
2023-05-02T05:23:16.736Z,13.05
2023-05-02T05:24:54.660Z,13.08
2023-05-02T05:26:27.032Z,13.16
2023-05-02T05:27:59.738Z,13.18
2023-05-02T05:29:31.767Z,13.19
2023-05-02T05:31:07.456Z,13.21
2023-05-02T05:32:40.063Z,13.28
2023-05-02T05:34:12.847Z,13.36
2023-05-02T05:35:44.520Z,13.44
2023-05-02T05:37:16.678Z,13.49
2023-05-02T05:38:48.238Z,13.52
2023-05-02T05:40:21.536Z,13.57
2023-05-02T05:41:53.171Z,13.61
2023-05-02T05:43:26.418Z,13.68
2023-05-02T05:44:58.491Z,13.71
2023-05-02T05:46:30.085Z,13.80
2023-05-02T05:48:01.676Z,13.79
2023-05-02T05:49:33.267Z,13.75
2023-05-02T05:51:05.662Z,13.77
2023-05-02T05:52:37.941Z,13.88
2023-05-02T05:54:10.199Z,14.01
2023-05-02T05:55:42.538Z,14.00
2023-05-02T05:57:14.639Z,14.03
2023-05-02T05:58:46.442Z,14.04
2023-05-02T06:00:18.455Z,14.08
2023-05-02T06:01:50.055Z,14.13
2023-05-02T06:03:22.774Z,14.20
2023-05-02T06:04:54.558Z,14.29
2023-05-02T06:06:27.538Z,14.37
2023-05-02T06:07:59.305Z,14.43
2023-05-02T06:09:30.988Z,14.46
2023-05-02T06:11:02.714Z,14.50
2023-05-02T06:12:34.543Z,14.58
2023-05-02T06:14:06.370Z,14.58
2023-05-02T06:15:38.183Z,14.60
2023-05-02T06:17:09.890Z,14.67
2023-05-02T06:18:41.672Z,14.71
2023-05-02T06:20:13.271Z,14.80
2023-05-02T06:21:45.358Z,14.86
2023-05-02T06:23:17.422Z,14.92
2023-05-02T06:24:48.905Z,14.92
2023-05-02T06:26:21.758Z,14.97
2023-05-02T06:27:53.344Z,15.11
2023-05-02T06:29:25.466Z,15.23
2023-05-02T06:30:57.754Z,15.27
2023-05-02T06:32:34.935Z,15.34
2023-05-02T06:34:06.730Z,15.46
2023-05-02T06:35:39.224Z,15.55
2023-05-02T06:37:11.425Z,15.59
2023-05-02T06:38:43.510Z,15.63
2023-05-02T06:40:15.449Z,15.74
2023-05-02T06:41:46.958Z,15.84
2023-05-02T06:43:19.195Z,15.87
2023-05-02T06:44:51.498Z,15.87
2023-05-02T06:46:24.193Z,15.93
2023-05-02T06:47:55.818Z,16.00
2023-05-02T06:49:28.305Z,16.06
2023-05-02T06:50:59.861Z,16.20
2023-05-02T06:52:31.362Z,16.36
2023-05-02T06:54:02.896Z,16.43
2023-05-02T06:55:34.468Z,16.51
2023-05-02T06:57:06.144Z,16.58
2023-05-02T06:58:37.914Z,16.58
2023-05-02T07:00:10.358Z,16.55
2023-05-02T07:01:42.467Z,16.64
2023-05-02T07:03:14.298Z,16.80
2023-05-02T07:04:46.270Z,16.92
2023-05-02T07:06:18.482Z,16.98
2023-05-02T07:07:50.083Z,16.99
2023-05-02T07:09:22.199Z,17.09
2023-05-02T07:10:54.041Z,17.25
2023-05-02T07:12:26.286Z,17.42
2023-05-02T07:13:57.944Z,17.56
2023-05-02T07:15:30.098Z,17.59
2023-05-02T07:17:01.797Z,17.64
2023-05-02T07:18:33.458Z,17.78
2023-05-02T07:20:05.578Z,17.89
2023-05-02T07:21:37.270Z,17.95
2023-05-02T07:23:09.581Z,18.13
2023-05-02T07:24:41.996Z,18.21
2023-05-02T07:26:14.124Z,18.29
2023-05-02T07:27:46.160Z,18.35
2023-05-02T07:29:18.122Z,18.39
2023-05-02T07:30:49.626Z,18.41
2023-05-02T07:32:22.464Z,18.54
2023-05-02T07:33:54.187Z,18.58
2023-05-02T07:35:26.296Z,18.58
2023-05-02T07:36:58.135Z,18.57
2023-05-02T07:38:29.632Z,18.67
2023-05-02T07:40:01.499Z,18.75
2023-05-02T07:41:33.516Z,18.85
2023-05-02T07:43:05.411Z,18.88
2023-05-02T07:44:37.086Z,18.96
2023-05-02T07:46:08.799Z,19.07
2023-05-02T07:47:41.375Z,19.19
2023-05-02T07:49:13.373Z,19.32
2023-05-02T07:50:45.488Z,19.36
2023-05-02T07:52:17.054Z,19.41
2023-05-02T07:53:53.861Z,19.49
2023-05-02T07:55:29.165Z,19.60
2023-05-02T07:57:03.164Z,19.61
2023-05-02T07:58:37.550Z,19.72
2023-05-02T08:00:10.385Z,19.92
2023-05-02T08:01:42.495Z,19.99
2023-05-02T08:03:14.728Z,19.98
2023-05-02T08:04:47.748Z,20.06
2023-05-02T08:06:19.587Z,20.12
2023-05-02T08:07:51.243Z,20.20
2023-05-02T08:09:22.828Z,20.17
2023-05-02T08:10:54.864Z,20.19
2023-05-02T08:12:26.383Z,20.23
2023-05-02T08:13:57.926Z,20.42
2023-05-02T08:15:30.536Z,20.61
2023-05-02T08:17:02.170Z,20.83
2023-05-02T08:18:34.121Z,20.81
2023-05-02T08:20:06.273Z,20.74
2023-05-02T08:21:37.840Z,20.59
2023-05-02T08:23:09.448Z,20.41
2023-05-02T08:24:41.094Z,20.25
2023-05-02T08:26:12.574Z,20.06
2023-05-02T08:27:44.088Z,19.90
2023-05-02T08:29:16.024Z,19.82
2023-05-02T08:30:47.818Z,19.82
2023-05-02T08:32:19.532Z,19.88
2023-05-02T08:33:51.445Z,20.08
2023-05-02T08:35:23.518Z,20.28
2023-05-02T08:36:56.784Z,20.42
2023-05-02T08:38:29.732Z,20.58
2023-05-02T08:40:01.855Z,20.67
2023-05-02T08:41:33.788Z,20.63
2023-05-02T08:43:08.649Z,20.64
2023-05-02T08:44:40.923Z,20.69
2023-05-02T08:46:13.145Z,20.76
2023-05-02T08:47:44.912Z,20.96
2023-05-02T08:49:16.509Z,21.18
2023-05-02T08:50:48.601Z,21.28
2023-05-02T08:52:20.389Z,21.19
2023-05-02T08:53:52.641Z,21.18
2023-05-02T08:55:27.859Z,21.01
2023-05-02T08:57:00.082Z,20.99
2023-05-02T08:58:31.976Z,21.06
2023-05-02T09:00:04.812Z,21.30
2023-05-02T09:01:37.200Z,21.50
2023-05-02T09:03:23.361Z,21.39
2023-05-02T09:04:56.361Z,21.30
2023-05-02T09:06:29.438Z,21.33
2023-05-02T09:08:01.818Z,21.53
2023-05-02T09:09:33.864Z,21.69
2023-05-02T09:11:05.520Z,21.89
2023-05-02T09:12:37.627Z,22.19
2023-05-02T09:14:15.808Z,22.44
2023-05-02T09:16:00.132Z,22.66
2023-05-02T09:17:39.759Z,22.76
2023-05-02T09:19:11.370Z,22.64
2023-05-02T09:20:44.068Z,22.44
2023-05-02T09:22:22.703Z,22.23
2023-05-02T09:23:57.986Z,22.16
2023-05-02T09:25:36.742Z,22.18
2023-05-02T09:27:08.678Z,22.32
2023-05-02T09:28:50.067Z,22.34
2023-05-02T09:30:21.854Z,22.31
2023-05-02T09:31:56.336Z,22.21
2023-05-02T09:33:28.449Z,22.14
2023-05-02T09:35:06.943Z,22.15
2023-05-02T09:36:42.153Z,22.15
2023-05-02T09:38:19.495Z,22.15
2023-05-02T09:40:05.727Z,22.08
2023-05-02T09:41:41.651Z,21.99
2023-05-02T09:43:19.104Z,22.08
2023-05-02T09:44:50.616Z,22.20
2023-05-02T09:46:22.128Z,22.40
2023-05-02T09:47:53.908Z,22.39
2023-05-02T09:49:41.571Z,22.37
2023-05-02T09:51:16.875Z,22.32
2023-05-02T09:53:01.159Z,22.34
2023-05-02T09:54:38.956Z,22.36
2023-05-02T09:56:11.029Z,22.33
2023-05-02T09:57:42.765Z,22.42
2023-05-02T09:59:14.822Z,22.37
2023-05-02T10:00:46.337Z,22.35
2023-05-02T10:02:17.894Z,22.26
2023-05-02T10:03:49.551Z,22.15
2023-05-02T10:05:21.253Z,22.08
2023-05-02T10:06:53.703Z,22.18
2023-05-02T10:08:26.992Z,22.23
2023-05-02T10:09:58.525Z,22.24
2023-05-02T10:11:30.752Z,22.23
2023-05-02T10:13:03.345Z,22.32
2023-05-02T10:14:44.146Z,22.22
2023-05-02T10:16:15.869Z,22.00
2023-05-02T10:17:48.491Z,21.84
2023-05-02T10:19:21.370Z,21.55
2023-05-02T10:20:55.975Z,21.35
2023-05-02T10:22:27.662Z,21.25
2023-05-02T10:23:59.360Z,21.17
2023-05-02T10:25:30.928Z,21.09
2023-05-02T10:27:02.517Z,21.10
2023-05-02T10:28:34.081Z,21.04
2023-05-02T10:30:06.625Z,21.05
2023-05-02T10:31:39.796Z,21.03
2023-05-02T10:33:12.000Z,21.03
2023-05-02T10:34:43.570Z,21.12
2023-05-02T10:36:15.447Z,21.05
2023-05-02T10:37:49.993Z,21.04
2023-05-02T10:39:24.606Z,21.06
2023-05-02T10:40:56.355Z,21.11
2023-05-02T10:42:28.312Z,21.16
2023-05-02T10:44:00.769Z,21.13
2023-05-02T10:45:37.809Z,21.22
2023-05-02T10:47:18.498Z,21.27
2023-05-02T10:49:02.511Z,21.21
2023-05-02T10:50:44.444Z,21.11
2023-05-02T10:52:29.418Z,21.07
2023-05-02T10:54:17.191Z,20.98
2023-05-02T10:56:07.171Z,20.87
2023-05-02T10:58:01.069Z,20.78
2023-05-02T10:59:36.636Z,20.88
2023-05-02T11:01:28.398Z,20.94
2023-05-02T11:03:00.710Z,21.07
2023-05-02T11:04:51.023Z,21.26
2023-05-02T11:06:22.777Z,21.52
2023-05-02T11:08:22.784Z,21.74
2023-05-02T11:10:15.069Z,21.71
2023-05-02T11:11:47.108Z,21.83
2023-05-02T11:13:28.342Z,21.95
2023-05-02T11:15:00.016Z,22.09
2023-05-02T11:16:50.444Z,22.23
2023-05-02T11:18:22.363Z,22.28
2023-05-02T11:19:57.423Z,22.35
2023-05-02T11:21:29.321Z,22.43
2023-05-02T11:23:27.284Z,22.35
2023-05-02T11:24:59.019Z,22.33
2023-05-02T11:26:32.956Z,22.44
2023-05-02T11:28:06.469Z,22.63
2023-05-02T11:29:51.552Z,22.79
2023-05-02T11:31:29.925Z,22.88
2023-05-02T11:33:04.701Z,22.97
2023-05-02T11:34:42.656Z,23.07
2023-05-02T11:36:14.369Z,23.06
2023-05-02T11:37:54.979Z,23.08
2023-05-02T11:39:26.800Z,23.08
2023-05-02T11:40:59.061Z,23.14
2023-05-02T11:42:30.849Z,23.12
2023-05-02T11:44:05.592Z,23.08
2023-05-02T11:45:37.461Z,23.12
2023-05-02T11:47:09.488Z,23.11
2023-05-02T11:48:41.688Z,23.20
2023-05-02T11:50:13.517Z,23.26
2023-05-02T11:51:45.535Z,23.43
2023-05-02T11:53:18.072Z,23.37
2023-05-02T11:54:50.615Z,23.39
2023-05-02T11:56:26.647Z,23.33
2023-05-02T11:57:58.118Z,23.20
2023-05-02T11:59:29.626Z,23.18
2023-05-02T12:01:14.518Z,23.30
2023-05-02T12:02:47.954Z,23.47
2023-05-02T12:04:22.078Z,23.57
2023-05-02T12:05:54.224Z,23.64
2023-05-02T12:07:34.622Z,23.72
2023-05-02T12:09:10.422Z,23.84
2023-05-02T12:10:42.504Z,23.91
2023-05-02T12:12:14.148Z,24.10
2023-05-02T12:13:47.034Z,24.32
2023-05-02T12:15:18.830Z,24.43
2023-05-02T12:16:50.493Z,24.59
2023-05-02T12:18:23.992Z,24.76
2023-05-02T12:19:55.820Z,24.70
2023-05-02T12:21:31.021Z,24.66
2023-05-02T12:23:02.825Z,24.47
2023-05-02T12:24:36.415Z,24.28
2023-05-02T12:26:21.475Z,24.17
2023-05-02T12:27:59.906Z,24.21
2023-05-02T12:29:38.540Z,24.17
2023-05-02T12:31:11.274Z,24.09
2023-05-02T12:32:45.721Z,23.97
2023-05-02T12:34:32.622Z,23.90
2023-05-02T12:36:08.128Z,23.73
2023-05-02T12:37:40.261Z,23.64
2023-05-02T12:39:12.184Z,23.64
2023-05-02T12:40:57.919Z,23.59
2023-05-02T12:42:29.542Z,23.60
2023-05-02T12:44:01.667Z,23.66
2023-05-02T12:45:36.877Z,23.65
2023-05-02T12:47:08.845Z,23.60
2023-05-02T12:48:40.411Z,23.51
2023-05-02T12:50:11.906Z,23.38
2023-05-02T12:51:53.098Z,23.29
2023-05-02T12:53:43.872Z,23.26
2023-05-02T12:55:18.962Z,23.22
2023-05-02T12:56:54.042Z,23.29
2023-05-02T12:58:28.368Z,23.23
2023-05-02T13:00:00.214Z,23.20
2023-05-02T13:01:33.290Z,23.17
2023-05-02T13:03:05.517Z,23.25
2023-05-02T13:04:41.630Z,23.23
2023-05-02T13:06:13.259Z,23.18
2023-05-02T13:07:45.480Z,23.19
2023-05-02T13:09:17.384Z,23.17
2023-05-02T13:10:49.334Z,23.15
2023-05-02T13:12:21.549Z,23.19
2023-05-02T13:13:53.757Z,23.14
2023-05-02T13:15:25.461Z,23.08
2023-05-02T13:16:57.482Z,23.11
2023-05-02T13:18:29.310Z,23.20
2023-05-02T13:20:02.476Z,23.28
2023-05-02T13:21:34.392Z,23.29
2023-05-02T13:23:06.019Z,23.20
2023-05-02T13:24:37.508Z,23.14
2023-05-02T13:26:09.325Z,23.24
2023-05-02T13:27:41.394Z,23.37
2023-05-02T13:29:12.999Z,23.45
2023-05-02T13:30:44.555Z,23.42
2023-05-02T13:32:16.617Z,23.38
2023-05-02T13:33:48.291Z,23.32
2023-05-02T13:35:19.985Z,23.35
2023-05-02T13:36:51.816Z,23.35
2023-05-02T13:38:24.442Z,23.35
2023-05-02T13:39:56.748Z,23.35
2023-05-02T13:41:28.304Z,23.36
2023-05-02T13:43:00.187Z,23.29
2023-05-02T13:44:31.788Z,23.15
2023-05-02T13:46:03.442Z,23.03
2023-05-02T13:47:35.097Z,23.03
2023-05-02T13:49:06.643Z,23.10
2023-05-02T13:50:39.187Z,23.24
2023-05-02T13:52:11.059Z,23.24
2023-05-02T13:53:42.571Z,23.14
2023-05-02T13:55:14.115Z,23.01
2023-05-02T13:56:45.968Z,22.99
2023-05-02T13:58:18.098Z,22.97
2023-05-02T13:59:50.028Z,23.03
2023-05-02T14:01:22.069Z,23.04
2023-05-02T14:02:54.089Z,23.01
2023-05-02T14:04:25.799Z,23.04
2023-05-02T14:05:57.684Z,23.03
2023-05-02T14:07:29.662Z,23.01
2023-05-02T14:09:01.742Z,22.98
2023-05-02T14:10:33.233Z,22.93
2023-05-02T14:12:04.849Z,22.98
2023-05-02T14:13:36.406Z,23.04
2023-05-02T14:15:08.290Z,23.05
2023-05-02T14:16:39.898Z,23.03
2023-05-02T14:18:11.486Z,22.98
2023-05-02T14:19:43.081Z,22.98
2023-05-02T14:21:14.664Z,22.94
2023-05-02T14:22:46.453Z,22.84
2023-05-02T14:24:19.443Z,22.79
2023-05-02T14:25:51.425Z,22.70
2023-05-02T14:27:23.634Z,22.61
2023-05-02T14:28:55.414Z,22.45
2023-05-02T14:30:26.931Z,22.33
2023-05-02T14:31:58.991Z,22.25
2023-05-02T14:33:30.701Z,22.27
2023-05-02T14:35:03.157Z,22.20
2023-05-02T14:36:34.988Z,22.20
2023-05-02T14:38:06.537Z,22.18
2023-05-02T14:39:39.227Z,22.09
2023-05-02T14:41:10.728Z,22.07
2023-05-02T14:42:42.251Z,22.07
2023-05-02T14:44:13.865Z,22.17
2023-05-02T14:45:45.530Z,22.20
2023-05-02T14:47:17.438Z,22.25
2023-05-02T14:48:49.436Z,22.25
2023-05-02T14:50:21.542Z,22.16
2023-05-02T14:51:53.979Z,22.05
2023-05-02T14:53:27.565Z,21.91
2023-05-02T14:55:00.563Z,21.80
2023-05-02T14:56:32.615Z,21.70
2023-05-02T14:58:05.726Z,21.69
2023-05-02T14:59:39.322Z,21.69
2023-05-02T15:01:18.040Z,21.54
2023-05-02T15:02:50.061Z,21.31
2023-05-02T15:04:22.437Z,21.23
2023-05-02T15:05:54.491Z,21.10
2023-05-02T15:07:27.016Z,20.99
2023-05-02T15:08:59.349Z,20.85
2023-05-02T15:10:31.017Z,20.78
2023-05-02T15:12:05.389Z,20.77
2023-05-02T15:13:37.455Z,20.73
2023-05-02T15:15:09.459Z,20.70
2023-05-02T15:16:41.608Z,20.64
2023-05-02T15:18:13.597Z,20.55
2023-05-02T15:19:45.361Z,20.51
2023-05-02T15:21:17.066Z,20.42
2023-05-02T15:22:48.803Z,20.35
2023-05-02T15:24:20.786Z,20.34
2023-05-02T15:25:52.769Z,20.28
2023-05-02T15:27:24.950Z,20.26
2023-05-02T15:28:57.182Z,20.29
2023-05-02T15:30:28.753Z,20.26
2023-05-02T15:32:00.681Z,20.21
2023-05-02T15:33:32.737Z,20.19
2023-05-02T15:35:08.003Z,20.22
2023-05-02T15:36:40.790Z,20.24
2023-05-02T15:38:12.515Z,20.22
2023-05-02T15:39:44.066Z,20.20
2023-05-02T15:41:15.542Z,20.15
2023-05-02T15:42:47.334Z,20.06
2023-05-02T15:44:19.485Z,19.97
2023-05-02T15:45:54.735Z,19.87
2023-05-02T15:47:26.545Z,19.81
2023-05-02T15:48:58.688Z,19.81
2023-05-02T15:50:30.266Z,19.84
2023-05-02T15:52:02.309Z,19.79
2023-05-02T15:53:34.771Z,19.75
2023-05-02T15:55:06.865Z,19.76
2023-05-02T15:56:38.480Z,19.72
2023-05-02T15:58:10.247Z,19.65
2023-05-02T15:59:41.957Z,19.58
2023-05-02T16:01:13.780Z,19.51
2023-05-02T16:02:45.384Z,19.44
2023-05-02T16:04:17.032Z,19.39
2023-05-02T16:05:48.935Z,19.33
2023-05-02T16:07:20.935Z,19.26
2023-05-02T16:08:52.958Z,19.22
2023-05-02T16:10:24.939Z,19.13
2023-05-02T16:11:57.209Z,19.08
2023-05-02T16:13:28.902Z,19.05
2023-05-02T16:15:01.895Z,19.03
2023-05-02T16:16:35.620Z,19.06
2023-05-02T16:18:07.440Z,19.01
2023-05-02T16:19:38.984Z,18.98
2023-05-02T16:21:11.871Z,18.94
2023-05-02T16:22:47.001Z,18.94
2023-05-02T16:24:18.823Z,18.93
2023-05-02T16:25:51.101Z,18.91
2023-05-02T16:27:23.739Z,18.91
2023-05-02T16:28:55.835Z,18.88
2023-05-02T16:30:28.277Z,18.83
2023-05-02T16:32:00.065Z,18.81
2023-05-02T16:33:31.869Z,18.82
2023-05-02T16:35:05.462Z,18.84
2023-05-02T16:36:37.071Z,18.83
2023-05-02T16:38:08.847Z,18.81
2023-05-02T16:39:40.611Z,18.74
2023-05-02T16:41:12.139Z,18.64
2023-05-02T16:42:43.723Z,18.54
2023-05-02T16:44:15.721Z,18.43
2023-05-02T16:45:47.340Z,18.39
2023-05-02T16:47:19.224Z,18.35
2023-05-02T16:48:51.319Z,18.34
2023-05-02T16:50:23.536Z,18.29
2023-05-02T16:51:56.143Z,18.25
2023-05-02T16:53:27.772Z,18.23
2023-05-02T16:54:59.436Z,18.22
2023-05-02T16:56:31.482Z,18.20
2023-05-02T16:58:03.626Z,18.14
2023-05-02T16:59:35.214Z,18.09
2023-05-02T17:01:06.784Z,18.02
2023-05-02T17:02:39.064Z,18.01
2023-05-02T17:04:11.216Z,18.01
2023-05-02T17:05:42.841Z,17.96
2023-05-02T17:07:14.450Z,17.90
2023-05-02T17:08:46.051Z,17.85
2023-05-02T17:10:19.136Z,17.79
2023-05-02T17:11:51.217Z,17.74
2023-05-02T17:13:23.234Z,17.74
2023-05-02T17:14:55.294Z,17.72
2023-05-02T17:16:27.581Z,17.69
2023-05-02T17:17:59.321Z,17.65
2023-05-02T17:19:31.448Z,17.63
2023-05-02T17:21:04.045Z,17.60
2023-05-02T17:22:36.114Z,17.57
2023-05-02T17:24:07.863Z,17.52
2023-05-02T17:25:39.498Z,17.47
2023-05-02T17:27:11.514Z,17.45
2023-05-02T17:28:43.889Z,17.40
2023-05-02T17:30:15.951Z,17.37
2023-05-02T17:31:47.632Z,17.35
2023-05-02T17:33:19.427Z,17.31
2023-05-02T17:34:51.331Z,17.31
2023-05-02T17:36:23.102Z,17.29
2023-05-02T17:37:55.854Z,17.24
2023-05-02T17:39:27.782Z,17.20
2023-05-02T17:40:59.428Z,17.19
2023-05-02T17:42:31.185Z,17.17
2023-05-02T17:44:03.197Z,17.14
2023-05-02T17:45:36.387Z,17.13
2023-05-02T17:47:08.740Z,17.09
2023-05-02T17:48:43.173Z,17.06
2023-05-02T17:50:14.898Z,17.04
2023-05-02T17:51:46.647Z,16.98
2023-05-02T17:53:18.253Z,16.93
2023-05-02T17:54:49.794Z,16.89
2023-05-02T17:56:21.706Z,16.84
2023-05-02T17:57:53.500Z,16.82
2023-05-02T17:59:27.400Z,16.75
2023-05-02T18:01:07.160Z,16.74
2023-05-02T18:02:39.029Z,16.70
2023-05-02T18:04:13.198Z,16.68
2023-05-02T18:05:47.411Z,16.68
2023-05-02T18:07:24.158Z,16.63
2023-05-02T18:08:55.746Z,16.59
2023-05-02T18:10:27.622Z,16.55
2023-05-02T18:12:00.683Z,16.56
2023-05-02T18:13:32.539Z,16.58
2023-05-02T18:15:06.024Z,16.54
2023-05-02T18:16:38.604Z,16.50
2023-05-02T18:18:10.473Z,16.52
2023-05-02T18:19:42.642Z,16.51
2023-05-02T18:21:21.215Z,16.47
2023-05-02T18:22:52.901Z,16.46
2023-05-02T18:24:24.779Z,16.41
2023-05-02T18:25:56.373Z,16.42
2023-05-02T18:27:28.708Z,16.43
2023-05-02T18:29:00.375Z,16.43
2023-05-02T18:30:32.365Z,16.41
2023-05-02T18:32:04.586Z,16.39
2023-05-02T18:33:36.883Z,16.37
2023-05-02T18:35:10.936Z,16.36
2023-05-02T18:36:45.351Z,16.37
2023-05-02T18:38:17.678Z,16.33
2023-05-02T18:39:49.529Z,16.31
2023-05-02T18:41:21.176Z,16.32
2023-05-02T18:42:53.090Z,16.29
2023-05-02T18:44:24.674Z,16.25
2023-05-02T18:45:56.337Z,16.22
2023-05-02T18:47:27.982Z,16.20
2023-05-02T18:49:00.489Z,16.19
2023-05-02T18:50:32.137Z,16.17
2023-05-02T18:52:04.017Z,16.14
2023-05-02T18:53:35.899Z,16.13
2023-05-02T18:55:08.437Z,16.10
2023-05-02T18:56:41.567Z,16.11
2023-05-02T18:58:13.228Z,16.04
2023-05-02T18:59:45.008Z,16.00
2023-05-02T19:01:17.224Z,15.98
2023-05-02T19:02:51.885Z,15.98
2023-05-02T19:04:23.846Z,15.97
2023-05-02T19:05:57.721Z,15.95
2023-05-02T19:07:29.797Z,15.98
2023-05-02T19:09:02.068Z,15.93
2023-05-02T19:10:34.376Z,15.90
2023-05-02T19:12:06.489Z,15.87
2023-05-02T19:13:38.961Z,15.81
2023-05-02T19:15:11.130Z,15.80
2023-05-02T19:16:42.746Z,15.81
2023-05-02T19:18:15.617Z,15.77
2023-05-02T19:19:48.247Z,15.76
2023-05-02T19:21:20.065Z,15.72
2023-05-02T19:22:54.091Z,15.69
2023-05-02T19:24:29.420Z,15.66
2023-05-02T19:26:01.666Z,15.69
2023-05-02T19:27:33.560Z,15.70
2023-05-02T19:29:05.097Z,15.67
2023-05-02T19:30:36.853Z,15.66
2023-05-02T19:32:08.544Z,15.66
2023-05-02T19:33:40.551Z,15.63
2023-05-02T19:35:12.612Z,15.59
2023-05-02T19:36:44.576Z,15.60
2023-05-02T19:38:16.689Z,15.58
2023-05-02T19:39:48.684Z,15.57
2023-05-02T19:41:21.601Z,15.53
2023-05-02T19:42:53.400Z,15.49
2023-05-02T19:44:25.171Z,15.49
2023-05-02T19:45:59.025Z,15.46
2023-05-02T19:47:32.614Z,15.43
2023-05-02T19:49:05.069Z,15.43
2023-05-02T19:50:37.902Z,15.42
2023-05-02T19:52:10.490Z,15.40
2023-05-02T19:53:42.767Z,15.40
2023-05-02T19:55:16.287Z,15.39
2023-05-02T19:56:49.020Z,15.35
2023-05-02T19:58:21.492Z,15.31
2023-05-02T19:59:53.108Z,15.32
2023-05-02T20:01:26.181Z,15.32
2023-05-02T20:02:58.421Z,15.31
2023-05-02T20:04:30.146Z,15.30
2023-05-02T20:06:02.030Z,15.32
2023-05-02T20:07:34.286Z,15.33
2023-05-02T20:09:05.836Z,15.32
2023-05-02T20:10:37.993Z,15.32
2023-05-02T20:12:09.641Z,15.29